sensor_id;sensor_type;location;lat;lon;timestamp;temperature;humidity
2995;DHT22;35277;49.890;8.222;2023-07-02T00:00:27;28.40;66.30
2995;DHT22;35277;49.890;8.222;2023-07-02T00:02:54;28.40;66.30
2995;DHT22;35277;49.890;8.222;2023-07-02T00:05:23;28.40;66.30
2995;DHT22;35277;49.890;8.222;2023-07-02T00:07:50;28.40;66.30
2995;DHT22;35277;49.890;8.222;2023-07-02T00:10:20;28.40;66.30
2995;DHT22;35277;49.890;8.222;2023-07-02T00:12:48;28.40;66.30
2995;DHT22;35277;49.890;8.222;2023-07-02T00:15:16;28.40;66.30
2995;DHT22;35277;49.890;8.222;2023-07-02T00:17:44;28.40;66.40
2995;DHT22;35277;49.890;8.222;2023-07-02T00:20:12;28.40;66.30
2995;DHT22;35277;49.890;8.222;2023-07-02T00:22:43;28.40;66.40
2995;DHT22;35277;49.890;8.222;2023-07-02T00:25:13;28.40;66.30
2995;DHT22;35277;49.890;8.222;2023-07-02T00:27:43;28.30;66.20
2995;DHT22;35277;49.890;8.222;2023-07-02T00:30:11;28.40;66.30
2995;DHT22;35277;49.890;8.222;2023-07-02T00:32:39;28.30;66.20
2995;DHT22;35277;49.890;8.222;2023-07-02T00:35:07;28.30;66.20
2995;DHT22;35277;49.890;8.222;2023-07-02T00:37:35;28.30;66.20
2995;DHT22;35277;49.890;8.222;2023-07-02T00:40:04;28.30;66.20
2995;DHT22;35277;49.890;8.222;2023-07-02T00:42:33;28.30;66.30
2995;DHT22;35277;49.890;8.222;2023-07-02T00:45:03;28.30;66.30
2995;DHT22;35277;49.890;8.222;2023-07-02T00:47:33;28.30;66.30
2995;DHT22;35277;49.890;8.222;2023-07-02T00:50:02;28.30;66.30
2995;DHT22;35277;49.890;8.222;2023-07-02T00:52:30;28.30;66.30
2995;DHT22;35277;49.890;8.222;2023-07-02T00:54:57;28.30;66.30
2995;DHT22;35277;49.890;8.222;2023-07-02T00:57:26;28.30;66.30
2995;DHT22;35277;49.890;8.222;2023-07-02T00:59:56;28.30;66.30
2995;DHT22;35277;49.890;8.222;2023-07-02T01:02:29;28.30;66.30
2995;DHT22;35277;49.890;8.222;2023-07-02T01:04:57;28.30;66.30
2995;DHT22;35277;49.890;8.222;2023-07-02T01:07:27;28.30;66.30
2995;DHT22;35277;49.890;8.222;2023-07-02T01:09:55;28.30;66.30
2995;DHT22;35277;49.890;8.222;2023-07-02T01:12:23;28.30;66.30
2995;DHT22;35277;49.890;8.222;2023-07-02T01:14:53;28.30;66.30
2995;DHT22;35277;49.890;8.222;2023-07-02T01:17:24;28.30;66.30
2995;DHT22;35277;49.890;8.222;2023-07-02T01:19:55;28.30;66.30
2995;DHT22;35277;49.890;8.222;2023-07-02T01:22:28;28.30;66.30
2995;DHT22;35277;49.890;8.222;2023-07-02T01:24:58;28.30;66.30
2995;DHT22;35277;49.890;8.222;2023-07-02T01:27:27;28.30;66.30
2995;DHT22;35277;49.890;8.222;2023-07-02T01:29:56;28.30;66.40
2995;DHT22;35277;49.890;8.222;2023-07-02T01:32:24;28.30;66.40
2995;DHT22;35277;49.890;8.222;2023-07-02T01:34:54;28.30;66.30
2995;DHT22;35277;49.890;8.222;2023-07-02T01:37:22;28.30;66.40
2995;DHT22;35277;49.890;8.222;2023-07-02T01:39:50;28.30;66.40
2995;DHT22;35277;49.890;8.222;2023-07-02T01:42:19;28.30;66.30
2995;DHT22;35277;49.890;8.222;2023-07-02T01:44:48;28.30;66.30
2995;DHT22;35277;49.890;8.222;2023-07-02T01:47:18;28.30;66.40
2995;DHT22;35277;49.890;8.222;2023-07-02T01:49:46;28.30;66.30
2995;DHT22;35277;49.890;8.222;2023-07-02T01:52:16;28.30;66.40
2995;DHT22;35277;49.890;8.222;2023-07-02T01:54:45;28.30;66.30
2995;DHT22;35277;49.890;8.222;2023-07-02T01:57:13;28.30;66.40
2995;DHT22;35277;49.890;8.222;2023-07-02T01:59:41;28.30;66.40
2995;DHT22;35277;49.890;8.222;2023-07-02T02:02:09;28.30;66.30
2995;DHT22;35277;49.890;8.222;2023-07-02T02:04:37;28.30;66.30
2995;DHT22;35277;49.890;8.222;2023-07-02T02:07:05;28.30;66.40
2995;DHT22;35277;49.890;8.222;2023-07-02T02:09:35;28.30;66.40
2995;DHT22;35277;49.890;8.222;2023-07-02T02:12:04;28.30;66.30
2995;DHT22;35277;49.890;8.222;2023-07-02T02:14:32;28.30;66.40
2995;DHT22;35277;49.890;8.222;2023-07-02T02:17:00;28.30;66.40
2995;DHT22;35277;49.890;8.222;2023-07-02T02:19:28;28.30;66.40
2995;DHT22;35277;49.890;8.222;2023-07-02T02:21:56;28.20;66.30
2995;DHT22;35277;49.890;8.222;2023-07-02T02:24:23;28.30;66.40
2995;DHT22;35277;49.890;8.222;2023-07-02T02:26:54;28.30;66.40
2995;DHT22;35277;49.890;8.222;2023-07-02T02:29:23;28.30;66.40
2995;DHT22;35277;49.890;8.222;2023-07-02T02:31:51;28.30;66.40
2995;DHT22;35277;49.890;8.222;2023-07-02T02:34:19;28.30;66.40
2995;DHT22;35277;49.890;8.222;2023-07-02T02:36:47;28.30;66.40
2995;DHT22;35277;49.890;8.222;2023-07-02T02:39:15;28.30;66.40
2995;DHT22;35277;49.890;8.222;2023-07-02T02:41:43;28.30;66.40
2995;DHT22;35277;49.890;8.222;2023-07-02T02:44:15;28.30;66.40
2995;DHT22;35277;49.890;8.222;2023-07-02T02:46:43;28.30;66.40
2995;DHT22;35277;49.890;8.222;2023-07-02T02:49:12;28.30;66.40
2995;DHT22;35277;49.890;8.222;2023-07-02T02:51:40;28.30;66.40
2995;DHT22;35277;49.890;8.222;2023-07-02T02:54:08;28.30;66.40
2995;DHT22;35277;49.890;8.222;2023-07-02T02:56:35;28.30;66.40
2995;DHT22;35277;49.890;8.222;2023-07-02T02:59:03;28.30;66.40
2995;DHT22;35277;49.890;8.222;2023-07-02T03:01:33;28.30;66.40
2995;DHT22;35277;49.890;8.222;2023-07-02T03:04:00;28.30;66.40
2995;DHT22;35277;49.890;8.222;2023-07-02T03:06:28;28.20;66.30
2995;DHT22;35277;49.890;8.222;2023-07-02T03:08:56;28.30;66.40
2995;DHT22;35277;49.890;8.222;2023-07-02T03:11:24;28.30;66.40
2995;DHT22;35277;49.890;8.222;2023-07-02T03:13:52;28.30;66.40
2995;DHT22;35277;49.890;8.222;2023-07-02T03:16:20;28.20;66.30
2995;DHT22;35277;49.890;8.222;2023-07-02T03:18:50;28.20;66.30
2995;DHT22;35277;49.890;8.222;2023-07-02T03:21:18;28.20;66.30
2995;DHT22;35277;49.890;8.222;2023-07-02T03:23:45;28.20;66.40
2995;DHT22;35277;49.890;8.222;2023-07-02T03:26:13;28.20;66.30
2995;DHT22;35277;49.890;8.222;2023-07-02T03:28:41;28.20;66.30
2995;DHT22;35277;49.890;8.222;2023-07-02T03:31:09;28.20;66.30
2995;DHT22;35277;49.890;8.222;2023-07-02T03:33:37;28.20;66.40
2995;DHT22;35277;49.890;8.222;2023-07-02T03:36:06;28.20;66.40
2995;DHT22;35277;49.890;8.222;2023-07-02T03:38:34;28.20;66.40
2995;DHT22;35277;49.890;8.222;2023-07-02T03:41:02;28.20;66.40
2995;DHT22;35277;49.890;8.222;2023-07-02T03:43:30;28.20;66.40
2995;DHT22;35277;49.890;8.222;2023-07-02T03:45:58;28.20;66.40
2995;DHT22;35277;49.890;8.222;2023-07-02T03:48:26;28.20;66.40
2995;DHT22;35277;49.890;8.222;2023-07-02T03:50:54;28.20;66.40
2995;DHT22;35277;49.890;8.222;2023-07-02T03:53:23;28.20;66.40
2995;DHT22;35277;49.890;8.222;2023-07-02T03:55:51;28.20;66.40
2995;DHT22;35277;49.890;8.222;2023-07-02T03:58:18;28.20;66.30
2995;DHT22;35277;49.890;8.222;2023-07-02T04:00:46;28.20;66.40
2995;DHT22;35277;49.890;8.222;2023-07-02T04:03:16;28.20;66.30
2995;DHT22;35277;49.890;8.222;2023-07-02T04:05:44;28.20;66.40
2995;DHT22;35277;49.890;8.222;2023-07-02T04:08:12;28.20;66.40
2995;DHT22;35277;49.890;8.222;2023-07-02T04:10:41;28.20;66.30
2995;DHT22;35277;49.890;8.222;2023-07-02T04:13:09;28.20;66.40
2995;DHT22;35277;49.890;8.222;2023-07-02T04:15:37;28.20;66.40
2995;DHT22;35277;49.890;8.222;2023-07-02T04:18:05;28.20;66.40
2995;DHT22;35277;49.890;8.222;2023-07-02T04:20:33;28.20;66.30
2995;DHT22;35277;49.890;8.222;2023-07-02T04:23:04;28.20;66.30
2995;DHT22;35277;49.890;8.222;2023-07-02T04:25:32;28.20;66.30
2995;DHT22;35277;49.890;8.222;2023-07-02T04:28:17;28.20;66.40
2995;DHT22;35277;49.890;8.222;2023-07-02T04:30:45;28.20;66.40
2995;DHT22;35277;49.890;8.222;2023-07-02T04:33:16;28.20;66.30
2995;DHT22;35277;49.890;8.222;2023-07-02T04:35:44;28.20;66.30
2995;DHT22;35277;49.890;8.222;2023-07-02T04:38:12;28.20;66.30
2995;DHT22;35277;49.890;8.222;2023-07-02T04:40:40;28.20;66.30
2995;DHT22;35277;49.890;8.222;2023-07-02T04:43:11;28.20;66.30
2995;DHT22;35277;49.890;8.222;2023-07-02T04:45:41;28.20;66.20
2995;DHT22;35277;49.890;8.222;2023-07-02T04:48:11;28.20;66.20
2995;DHT22;35277;49.890;8.222;2023-07-02T04:50:41;28.20;66.20
2995;DHT22;35277;49.890;8.222;2023-07-02T04:53:09;28.20;66.20
2995;DHT22;35277;49.890;8.222;2023-07-02T04:55:37;28.20;67.00
2995;DHT22;35277;49.890;8.222;2023-07-02T04:58:04;28.20;66.20
2995;DHT22;35277;49.890;8.222;2023-07-02T05:00:32;28.20;66.20
2995;DHT22;35277;49.890;8.222;2023-07-02T05:03:01;28.20;66.10
2995;DHT22;35277;49.890;8.222;2023-07-02T05:05:30;28.20;66.10
2995;DHT22;35277;49.890;8.222;2023-07-02T05:07:58;28.20;66.10
2995;DHT22;35277;49.890;8.222;2023-07-02T05:10:26;28.20;66.10
2995;DHT22;35277;49.890;8.222;2023-07-02T05:12:54;28.20;66.10
2995;DHT22;35277;49.890;8.222;2023-07-02T05:15:22;28.20;66.10
2995;DHT22;35277;49.890;8.222;2023-07-02T05:17:50;28.20;66.00
2995;DHT22;35277;49.890;8.222;2023-07-02T05:20:20;28.20;66.00
2995;DHT22;35277;49.890;8.222;2023-07-02T05:22:47;28.20;66.00
2995;DHT22;35277;49.890;8.222;2023-07-02T05:25:15;28.20;66.10
2995;DHT22;35277;49.890;8.222;2023-07-02T05:27:43;28.20;66.00
2995;DHT22;35277;49.890;8.222;2023-07-02T05:30:12;28.20;66.00
2995;DHT22;35277;49.890;8.222;2023-07-02T05:32:40;28.20;66.00
2995;DHT22;35277;49.890;8.222;2023-07-02T05:35:08;28.20;65.90
2995;DHT22;35277;49.890;8.222;2023-07-02T05:37:37;28.20;66.00
2995;DHT22;35277;49.890;8.222;2023-07-02T05:40:06;28.20;65.90
2995;DHT22;35277;49.890;8.222;2023-07-02T05:42:35;28.20;65.90
2995;DHT22;35277;49.890;8.222;2023-07-02T05:45:04;28.20;66.00
2995;DHT22;35277;49.890;8.222;2023-07-02T05:47:32;28.20;65.90
2995;DHT22;35277;49.890;8.222;2023-07-02T05:50:00;28.20;65.90
2995;DHT22;35277;49.890;8.222;2023-07-02T05:52:28;28.20;65.90
2995;DHT22;35277;49.890;8.222;2023-07-02T05:54:57;28.20;65.90
2995;DHT22;35277;49.890;8.222;2023-07-02T05:57:25;28.20;65.90
2995;DHT22;35277;49.890;8.222;2023-07-02T05:59:53;28.20;65.90
2995;DHT22;35277;49.890;8.222;2023-07-02T06:02:21;28.20;65.90
2995;DHT22;35277;49.890;8.222;2023-07-02T06:04:49;28.20;65.80
2995;DHT22;35277;49.890;8.222;2023-07-02T06:07:17;28.20;65.80
2995;DHT22;35277;49.890;8.222;2023-07-02T06:09:45;28.20;65.80
2995;DHT22;35277;49.890;8.222;2023-07-02T06:12:14;28.20;65.80
2995;DHT22;35277;49.890;8.222;2023-07-02T06:14:42;28.20;65.80
2995;DHT22;35277;49.890;8.222;2023-07-02T06:17:10;28.20;65.80
2995;DHT22;35277;49.890;8.222;2023-07-02T06:19:38;28.20;65.80
2995;DHT22;35277;49.890;8.222;2023-07-02T06:22:06;28.20;65.70
2995;DHT22;35277;49.890;8.222;2023-07-02T06:24:34;28.20;65.80
2995;DHT22;35277;49.890;8.222;2023-07-02T06:27:02;28.20;65.80
2995;DHT22;35277;49.890;8.222;2023-07-02T06:29:31;28.20;65.70
2995;DHT22;35277;49.890;8.222;2023-07-02T06:31:59;28.20;65.70
2995;DHT22;35277;49.890;8.222;2023-07-02T06:34:27;28.20;65.70
2995;DHT22;35277;49.890;8.222;2023-07-02T06:36:55;28.20;65.70
2995;DHT22;35277;49.890;8.222;2023-07-02T06:39:23;28.20;65.70
2995;DHT22;35277;49.890;8.222;2023-07-02T06:41:51;28.20;65.70
2995;DHT22;35277;49.890;8.222;2023-07-02T06:44:26;28.20;65.70
2995;DHT22;35277;49.890;8.222;2023-07-02T06:46:55;28.20;65.70
2995;DHT22;35277;49.890;8.222;2023-07-02T06:49:23;28.20;65.70
2995;DHT22;35277;49.890;8.222;2023-07-02T06:51:51;28.20;65.70
2995;DHT22;35277;49.890;8.222;2023-07-02T06:54:19;28.20;65.60
2995;DHT22;35277;49.890;8.222;2023-07-02T06:56:47;28.20;65.60
2995;DHT22;35277;49.890;8.222;2023-07-02T06:59:18;28.20;65.60
2995;DHT22;35277;49.890;8.222;2023-07-02T07:01:47;28.20;65.60
2995;DHT22;35277;49.890;8.222;2023-07-02T07:04:16;28.20;65.60
2995;DHT22;35277;49.890;8.222;2023-07-02T07:06:44;28.20;65.60
2995;DHT22;35277;49.890;8.222;2023-07-02T07:09:12;28.20;65.60
2995;DHT22;35277;49.890;8.222;2023-07-02T07:11:40;28.20;65.60
2995;DHT22;35277;49.890;8.222;2023-07-02T07:14:08;28.20;65.80
2995;DHT22;35277;49.890;8.222;2023-07-02T07:16:36;28.20;65.60
2995;DHT22;35277;49.890;8.222;2023-07-02T07:19:04;28.20;65.60
2995;DHT22;35277;49.890;8.222;2023-07-02T07:21:33;28.20;65.60
2995;DHT22;35277;49.890;8.222;2023-07-02T07:24:01;28.20;65.60
2995;DHT22;35277;49.890;8.222;2023-07-02T07:26:29;28.20;65.60
2995;DHT22;35277;49.890;8.222;2023-07-02T07:28:57;28.20;65.60
2995;DHT22;35277;49.890;8.222;2023-07-02T07:31:25;28.20;65.60
2995;DHT22;35277;49.890;8.222;2023-07-02T07:33:53;28.20;65.60
2995;DHT22;35277;49.890;8.222;2023-07-02T07:36:21;28.20;65.60
2995;DHT22;35277;49.890;8.222;2023-07-02T07:38:50;28.20;65.60
2995;DHT22;35277;49.890;8.222;2023-07-02T07:41:18;28.20;65.60
2995;DHT22;35277;49.890;8.222;2023-07-02T07:43:46;28.20;65.60
2995;DHT22;35277;49.890;8.222;2023-07-02T07:46:14;28.20;65.50
2995;DHT22;35277;49.890;8.222;2023-07-02T07:48:41;28.20;65.60
2995;DHT22;35277;49.890;8.222;2023-07-02T07:51:09;28.20;65.50
2995;DHT22;35277;49.890;8.222;2023-07-02T07:53:38;28.20;65.60
2995;DHT22;35277;49.890;8.222;2023-07-02T07:56:07;28.20;65.50
2995;DHT22;35277;49.890;8.222;2023-07-02T07:58:35;28.20;65.50
2995;DHT22;35277;49.890;8.222;2023-07-02T08:01:03;28.20;65.50
2995;DHT22;35277;49.890;8.222;2023-07-02T08:03:31;28.20;65.60
2995;DHT22;35277;49.890;8.222;2023-07-02T08:05:59;28.20;65.60
2995;DHT22;35277;49.890;8.222;2023-07-02T08:08:27;28.20;65.50
2995;DHT22;35277;49.890;8.222;2023-07-02T08:10:55;28.20;65.50
2995;DHT22;35277;49.890;8.222;2023-07-02T08:13:24;28.20;65.50
2995;DHT22;35277;49.890;8.222;2023-07-02T08:15:52;28.20;65.50
2995;DHT22;35277;49.890;8.222;2023-07-02T08:18:20;28.20;65.50
2995;DHT22;35277;49.890;8.222;2023-07-02T08:20:48;28.20;65.50
2995;DHT22;35277;49.890;8.222;2023-07-02T08:23:16;28.20;65.60
2995;DHT22;35277;49.890;8.222;2023-07-02T08:25:44;28.20;65.60
2995;DHT22;35277;49.890;8.222;2023-07-02T08:28:12;28.20;65.60
2995;DHT22;35277;49.890;8.222;2023-07-02T08:30:41;28.20;65.60
2995;DHT22;35277;49.890;8.222;2023-07-02T08:33:08;28.20;65.60
2995;DHT22;35277;49.890;8.222;2023-07-02T08:35:36;28.20;65.60
2995;DHT22;35277;49.890;8.222;2023-07-02T08:38:04;28.20;65.60
2995;DHT22;35277;49.890;8.222;2023-07-02T08:40:32;28.20;65.60
2995;DHT22;35277;49.890;8.222;2023-07-02T08:43:00;28.30;65.70
2995;DHT22;35277;49.890;8.222;2023-07-02T08:45:29;28.30;66.50
2995;DHT22;35277;49.890;8.222;2023-07-02T08:47:59;28.20;65.60
2995;DHT22;35277;49.890;8.222;2023-07-02T08:50:28;28.30;65.70
2995;DHT22;35277;49.890;8.222;2023-07-02T08:52:56;28.30;65.70
2995;DHT22;35277;49.890;8.222;2023-07-02T08:55:24;28.30;65.70
2995;DHT22;35277;49.890;8.222;2023-07-02T08:57:53;28.30;65.70
2995;DHT22;35277;49.890;8.222;2023-07-02T09:00:22;28.30;65.70
2995;DHT22;35277;49.890;8.222;2023-07-02T09:02:50;28.30;65.60
2995;DHT22;35277;49.890;8.222;2023-07-02T09:05:20;28.30;65.70
2995;DHT22;35277;49.890;8.222;2023-07-02T09:07:49;28.30;65.70
2995;DHT22;35277;49.890;8.222;2023-07-02T09:10:28;28.30;65.70
2995;DHT22;35277;49.890;8.222;2023-07-02T09:13:04;28.30;65.80
2995;DHT22;35277;49.890;8.222;2023-07-02T09:15:38;28.30;65.70
2995;DHT22;35277;49.890;8.222;2023-07-02T09:18:19;28.30;65.80
2995;DHT22;35277;49.890;8.222;2023-07-02T09:20:51;28.30;65.70
2995;DHT22;35277;49.890;8.222;2023-07-02T09:23:20;28.30;65.80
2995;DHT22;35277;49.890;8.222;2023-07-02T09:25:48;28.30;65.70
2995;DHT22;35277;49.890;8.222;2023-07-02T09:28:18;28.30;65.80
2995;DHT22;35277;49.890;8.222;2023-07-02T09:30:50;28.30;65.70
2995;DHT22;35277;49.890;8.222;2023-07-02T09:33:18;28.30;65.70
2995;DHT22;35277;49.890;8.222;2023-07-02T09:35:47;28.30;65.70
2995;DHT22;35277;49.890;8.222;2023-07-02T09:38:16;28.30;65.70
2995;DHT22;35277;49.890;8.222;2023-07-02T09:40:46;28.30;65.70
2995;DHT22;35277;49.890;8.222;2023-07-02T09:43:15;28.40;65.90
2995;DHT22;35277;49.890;8.222;2023-07-02T09:45:44;28.40;65.80
2995;DHT22;35277;49.890;8.222;2023-07-02T09:48:13;28.40;65.90
2995;DHT22;35277;49.890;8.222;2023-07-02T09:50:44;28.40;65.90
2995;DHT22;35277;49.890;8.222;2023-07-02T09:53:13;28.40;65.90
2995;DHT22;35277;49.890;8.222;2023-07-02T09:55:43;28.40;65.90
2995;DHT22;35277;49.890;8.222;2023-07-02T09:58:11;28.40;65.90
2995;DHT22;35277;49.890;8.222;2023-07-02T10:00:39;28.40;65.90
2995;DHT22;35277;49.890;8.222;2023-07-02T10:03:08;28.40;65.90
2995;DHT22;35277;49.890;8.222;2023-07-02T10:05:36;28.30;65.80
2995;DHT22;35277;49.890;8.222;2023-07-02T10:08:14;28.40;65.90
2995;DHT22;35277;49.890;8.222;2023-07-02T10:10:45;28.40;65.90
2995;DHT22;35277;49.890;8.222;2023-07-02T10:13:14;28.40;65.90
2995;DHT22;35277;49.890;8.222;2023-07-02T10:15:42;28.30;65.70
2995;DHT22;35277;49.890;8.222;2023-07-02T10:18:10;28.30;65.70
2995;DHT22;35277;49.890;8.222;2023-07-02T10:20:39;28.40;65.80
2995;DHT22;35277;49.890;8.222;2023-07-02T10:23:09;28.40;65.80
2995;DHT22;35277;49.890;8.222;2023-07-02T10:25:38;28.40;65.80
2995;DHT22;35277;49.890;8.222;2023-07-02T10:28:16;28.30;65.70
2995;DHT22;35277;49.890;8.222;2023-07-02T10:30:45;28.30;65.70
2995;DHT22;35277;49.890;8.222;2023-07-02T10:33:15;28.40;65.80
2995;DHT22;35277;49.890;8.222;2023-07-02T10:35:45;28.30;65.70
2995;DHT22;35277;49.890;8.222;2023-07-02T10:38:17;28.30;65.70
2995;DHT22;35277;49.890;8.222;2023-07-02T10:40:46;28.40;66.60
2995;DHT22;35277;49.890;8.222;2023-07-02T10:43:24;28.40;65.80
2995;DHT22;35277;49.890;8.222;2023-07-02T10:45:56;28.40;65.80
2995;DHT22;35277;49.890;8.222;2023-07-02T10:48:24;28.40;65.80
2995;DHT22;35277;49.890;8.222;2023-07-02T10:50:52;28.40;65.90
2995;DHT22;35277;49.890;8.222;2023-07-02T10:53:20;28.30;65.80
2995;DHT22;35277;49.890;8.222;2023-07-02T10:55:53;28.40;65.80
2995;DHT22;35277;49.890;8.222;2023-07-02T10:58:24;28.30;65.70
2995;DHT22;35277;49.890;8.222;2023-07-02T11:00:53;28.40;65.80
2995;DHT22;35277;49.890;8.222;2023-07-02T11:03:22;28.40;65.80
2995;DHT22;35277;49.890;8.222;2023-07-02T11:05:51;28.40;65.80
2995;DHT22;35277;49.890;8.222;2023-07-02T11:08:20;28.40;65.80
2995;DHT22;35277;49.890;8.222;2023-07-02T11:10:50;28.40;65.80
2995;DHT22;35277;49.890;8.222;2023-07-02T11:13:18;28.40;65.80
2995;DHT22;35277;49.890;8.222;2023-07-02T11:15:48;28.40;65.80
2995;DHT22;35277;49.890;8.222;2023-07-02T11:18:17;28.40;65.70
2995;DHT22;35277;49.890;8.222;2023-07-02T11:20:48;28.30;65.60
2995;DHT22;35277;49.890;8.222;2023-07-02T11:23:19;28.40;65.70
2995;DHT22;35277;49.890;8.222;2023-07-02T11:25:55;28.40;65.70
2995;DHT22;35277;49.890;8.222;2023-07-02T11:28:24;28.40;65.70
2995;DHT22;35277;49.890;8.222;2023-07-02T11:30:54;28.40;65.70
2995;DHT22;35277;49.890;8.222;2023-07-02T11:33:32;28.40;65.70
2995;DHT22;35277;49.890;8.222;2023-07-02T11:36:00;28.40;65.70
2995;DHT22;35277;49.890;8.222;2023-07-02T11:38:28;28.40;65.60
2995;DHT22;35277;49.890;8.222;2023-07-02T11:40:56;28.40;65.70
2995;DHT22;35277;49.890;8.222;2023-07-02T11:43:25;28.40;65.60
2995;DHT22;35277;49.890;8.222;2023-07-02T11:45:54;28.40;65.60
2995;DHT22;35277;49.890;8.222;2023-07-02T11:48:22;28.40;65.60
2995;DHT22;35277;49.890;8.222;2023-07-02T11:50:49;28.40;65.60
2995;DHT22;35277;49.890;8.222;2023-07-02T11:53:17;28.40;65.60
2995;DHT22;35277;49.890;8.222;2023-07-02T11:55:45;28.40;65.60
2995;DHT22;35277;49.890;8.222;2023-07-02T11:58:13;28.40;65.60
2995;DHT22;35277;49.890;8.222;2023-07-02T12:00:41;28.40;65.60
2995;DHT22;35277;49.890;8.222;2023-07-02T12:03:10;28.40;65.60
2995;DHT22;35277;49.890;8.222;2023-07-02T12:05:39;28.40;65.60
2995;DHT22;35277;49.890;8.222;2023-07-02T12:08:07;28.40;65.50
2995;DHT22;35277;49.890;8.222;2023-07-02T12:10:36;28.40;65.50
2995;DHT22;35277;49.890;8.222;2023-07-02T12:13:04;28.40;65.50
2995;DHT22;35277;49.890;8.222;2023-07-02T12:15:32;28.40;65.60
2995;DHT22;35277;49.890;8.222;2023-07-02T12:18:00;28.40;65.50
2995;DHT22;35277;49.890;8.222;2023-07-02T12:20:30;28.40;65.50
2995;DHT22;35277;49.890;8.222;2023-07-02T12:22:58;28.40;65.50
2995;DHT22;35277;49.890;8.222;2023-07-02T12:25:27;28.40;65.50
2995;DHT22;35277;49.890;8.222;2023-07-02T12:27:55;28.40;65.50
2995;DHT22;35277;49.890;8.222;2023-07-02T12:30:23;28.40;65.50
2995;DHT22;35277;49.890;8.222;2023-07-02T12:32:51;28.40;65.40
2995;DHT22;35277;49.890;8.222;2023-07-02T12:35:19;28.40;65.40
2995;DHT22;35277;49.890;8.222;2023-07-02T12:37:50;28.40;65.40
2995;DHT22;35277;49.890;8.222;2023-07-02T12:40:18;28.50;65.50
2995;DHT22;35277;49.890;8.222;2023-07-02T12:42:47;28.40;65.40
2995;DHT22;35277;49.890;8.222;2023-07-02T12:45:16;28.50;65.50
2995;DHT22;35277;49.890;8.222;2023-07-02T12:47:48;28.50;65.50
2995;DHT22;35277;49.890;8.222;2023-07-02T12:50:16;28.50;65.50
2995;DHT22;35277;49.890;8.222;2023-07-02T12:52:44;28.40;65.40
2995;DHT22;35277;49.890;8.222;2023-07-02T12:55:13;28.50;65.40
2995;DHT22;35277;49.890;8.222;2023-07-02T12:57:41;28.50;65.40
2995;DHT22;35277;49.890;8.222;2023-07-02T13:00:10;28.40;65.30
2995;DHT22;35277;49.890;8.222;2023-07-02T13:02:38;28.40;65.30
2995;DHT22;35277;49.890;8.222;2023-07-02T13:05:25;28.50;65.40
2995;DHT22;35277;49.890;8.222;2023-07-02T13:07:53;28.50;65.30
2995;DHT22;35277;49.890;8.222;2023-07-02T13:10:23;28.50;65.30
2995;DHT22;35277;49.890;8.222;2023-07-02T13:12:51;28.50;65.30
2995;DHT22;35277;49.890;8.222;2023-07-02T13:15:19;28.50;65.20
2995;DHT22;35277;49.890;8.222;2023-07-02T13:17:47;28.50;65.20
2995;DHT22;35277;49.890;8.222;2023-07-02T13:20:15;28.50;65.20
2995;DHT22;35277;49.890;8.222;2023-07-02T13:22:43;28.50;65.20
2995;DHT22;35277;49.890;8.222;2023-07-02T13:25:11;28.50;65.20
2995;DHT22;35277;49.890;8.222;2023-07-02T13:27:40;28.50;65.20
2995;DHT22;35277;49.890;8.222;2023-07-02T13:30:08;28.50;65.10
2995;DHT22;35277;49.890;8.222;2023-07-02T13:32:36;28.50;65.10
2995;DHT22;35277;49.890;8.222;2023-07-02T13:35:05;28.50;65.00
2995;DHT22;35277;49.890;8.222;2023-07-02T13:37:33;28.50;64.90
2995;DHT22;35277;49.890;8.222;2023-07-02T13:40:01;28.40;64.80
2995;DHT22;35277;49.890;8.222;2023-07-02T13:42:31;28.40;64.80
2995;DHT22;35277;49.890;8.222;2023-07-02T13:45:00;28.40;64.80
2995;DHT22;35277;49.890;8.222;2023-07-02T13:47:28;28.40;64.70
2995;DHT22;35277;49.890;8.222;2023-07-02T13:49:56;28.40;64.70
2995;DHT22;35277;49.890;8.222;2023-07-02T13:52:24;28.40;64.70
2995;DHT22;35277;49.890;8.222;2023-07-02T13:54:52;28.40;64.60
2995;DHT22;35277;49.890;8.222;2023-07-02T13:57:20;28.40;64.60
2995;DHT22;35277;49.890;8.222;2023-07-02T13:59:49;28.40;64.60
2995;DHT22;35277;49.890;8.222;2023-07-02T14:02:17;28.40;64.60
2995;DHT22;35277;49.890;8.222;2023-07-02T14:04:46;28.40;64.50
2995;DHT22;35277;49.890;8.222;2023-07-02T14:07:14;28.40;64.50
2995;DHT22;35277;49.890;8.222;2023-07-02T14:09:42;28.30;64.40
2995;DHT22;35277;49.890;8.222;2023-07-02T14:12:10;28.40;64.50
2995;DHT22;35277;49.890;8.222;2023-07-02T14:14:38;28.30;64.40
2995;DHT22;35277;49.890;8.222;2023-07-02T14:17:08;28.30;64.30
2995;DHT22;35277;49.890;8.222;2023-07-02T14:19:35;28.30;64.30
2995;DHT22;35277;49.890;8.222;2023-07-02T14:22:03;28.30;64.30
2995;DHT22;35277;49.890;8.222;2023-07-02T14:24:31;28.30;64.30
2995;DHT22;35277;49.890;8.222;2023-07-02T14:26:59;28.30;64.30
2995;DHT22;35277;49.890;8.222;2023-07-02T14:29:27;28.30;64.30
2995;DHT22;35277;49.890;8.222;2023-07-02T14:31:54;28.30;64.30
2995;DHT22;35277;49.890;8.222;2023-07-02T14:34:24;28.30;64.30
2995;DHT22;35277;49.890;8.222;2023-07-02T14:36:52;28.30;64.30
2995;DHT22;35277;49.890;8.222;2023-07-02T14:39:19;28.30;64.30
2995;DHT22;35277;49.890;8.222;2023-07-02T14:41:47;28.30;64.30
2995;DHT22;35277;49.890;8.222;2023-07-02T14:44:15;28.30;64.30
2995;DHT22;35277;49.890;8.222;2023-07-02T14:46:43;28.30;64.20
2995;DHT22;35277;49.890;8.222;2023-07-02T14:49:11;28.30;64.30
2995;DHT22;35277;49.890;8.222;2023-07-02T14:51:41;28.30;64.20
2995;DHT22;35277;49.890;8.222;2023-07-02T14:54:09;28.30;64.20
2995;DHT22;35277;49.890;8.222;2023-07-02T14:56:36;28.30;64.20
2995;DHT22;35277;49.890;8.222;2023-07-02T14:59:04;28.30;64.10
2995;DHT22;35277;49.890;8.222;2023-07-02T15:01:33;28.30;64.10
2995;DHT22;35277;49.890;8.222;2023-07-02T15:04:01;28.30;64.10
2995;DHT22;35277;49.890;8.222;2023-07-02T15:06:29;28.30;64.00
2995;DHT22;35277;49.890;8.222;2023-07-02T15:08:58;28.30;64.00
2995;DHT22;35277;49.890;8.222;2023-07-02T15:11:26;28.30;64.00
2995;DHT22;35277;49.890;8.222;2023-07-02T15:13:55;28.30;63.90
2995;DHT22;35277;49.890;8.222;2023-07-02T15:16:24;28.30;64.00
2995;DHT22;35277;49.890;8.222;2023-07-02T15:18:52;28.30;64.00
2995;DHT22;35277;49.890;8.222;2023-07-02T15:21:20;28.30;63.90
2995;DHT22;35277;49.890;8.222;2023-07-02T15:23:48;28.30;63.90
2995;DHT22;35277;49.890;8.222;2023-07-02T15:26:18;28.30;63.90
2995;DHT22;35277;49.890;8.222;2023-07-02T15:28:45;28.30;64.00
2995;DHT22;35277;49.890;8.222;2023-07-02T15:31:13;28.30;63.90
2995;DHT22;35277;49.890;8.222;2023-07-02T15:33:44;28.30;63.90
2995;DHT22;35277;49.890;8.222;2023-07-02T15:36:12;28.30;63.90
2995;DHT22;35277;49.890;8.222;2023-07-02T15:38:40;28.30;63.90
2995;DHT22;35277;49.890;8.222;2023-07-02T15:41:10;28.30;63.90
2995;DHT22;35277;49.890;8.222;2023-07-02T15:43:41;28.30;63.90
2995;DHT22;35277;49.890;8.222;2023-07-02T15:46:12;28.30;63.90
2995;DHT22;35277;49.890;8.222;2023-07-02T15:48:40;28.30;63.90
2995;DHT22;35277;49.890;8.222;2023-07-02T15:51:09;28.30;63.10
2995;DHT22;35277;49.890;8.222;2023-07-02T15:53:38;28.30;61.20